Battle Point — NMBY — position and weather

sailwx.info

Track history (hours):
 
Tides and Currents Weather Stations Pressure Air Temp Water Temp Dewpoint Dewpoint Depression Visibility Wind Speed Wind Dir Waves Ship Positions

Battle Point

Last reported at 2016-May-17 22:04 UTC. Time now 2016-May-31 07:50 UTC.
Position N 47°44' W 122°44'.
Warning: this ship's position is 13 days out of date.

Length 57 m; draft 3.2 m.

MMSI: 369970254.

Date/timePositionNaut miles runAvg speedWind from/ knotsBaromVisibWave heightAir tempDewpointWater temp
2016-May-17 22:04N 47°44' W 122°44'  
2016-May-10 03:08N 47°44' W 122°44'2 3.3
2016-May-10 02:31N 47°46' W 122°44'10 9.0
2016-May-10 01:22N 47°56' W 122°38'6 7.2
2016-May-10 00:33N 47°56' W 122°29'1010.0
2016-May-09 23:34N 47°46' W 122°26'1010.4
2016-May-09 22:33N 47°35' W 122°27'4 4.1
2016-May-09 21:33N 47°34' W 122°32'0 0.0
2016-May-09 20:33N 47°34' W 122°32'0 0.0
2016-May-09 19:33N 47°34' W 122°32'0 0.0
2016-May-09 18:33N 47°34' W 122°32'0 0.0
2016-May-09 17:33N 47°34' W 122°32'0 0.3
2016-May-09 16:33N 47°34' W 122°32'8 7.6
2016-May-09 15:33N 47°41' W 122°28'10 9.9
2016-May-09 14:33N 47°51' W 122°29'8 7.9
2016-May-09 13:31N 47°56' W 122°38'8 8.5
2016-May-09 12:33N 47°49' W 122°42'5 4.8
2016-May-09 11:33N 47°44' W 122°44'  
Track history (hours):
 
Tides and Currents Weather Stations Pressure Air Temp Water Temp Dewpoint Dewpoint Depression Visibility Wind Speed Wind Dir Waves Ship Positions

Battle Point

Last reported at 2016-May-17 22:04 UTC. Time now 2016-May-31 07:50 UTC.
Position N 47°44' W 122°44'.
Warning: this ship's position is 13 days out of date.

Length 57 m; draft 3.2 m.

MMSI: 369970254.

Date/timePositionNaut miles runAvg speedWind from/ knotsBaromVisibWave heightAir tempDewpointWater temp
2016-May-17 22:04N 47°44' W 122°44'  
2016-May-10 03:08N 47°44' W 122°44'2 3.3
2016-May-10 02:31N 47°46' W 122°44'10 9.0
2016-May-10 01:22N 47°56' W 122°38'6 7.2
2016-May-10 00:33N 47°56' W 122°29'1010.0
2016-May-09 23:34N 47°46' W 122°26'1010.4
2016-May-09 22:33N 47°35' W 122°27'4 4.1
2016-May-09 21:33N 47°34' W 122°32'0 0.0
2016-May-09 20:33N 47°34' W 122°32'0 0.0
2016-May-09 19:33N 47°34' W 122°32'0 0.0
2016-May-09 18:33N 47°34' W 122°32'0 0.0
2016-May-09 17:33N 47°34' W 122°32'0 0.3
2016-May-09 16:33N 47°34' W 122°32'8 7.6
2016-May-09 15:33N 47°41' W 122°28'10 9.9
2016-May-09 14:33N 47°51' W 122°29'8 7.9
2016-May-09 13:31N 47°56' W 122°38'8 8.5
2016-May-09 12:33N 47°49' W 122°42'5 4.8
2016-May-09 11:33N 47°44' W 122°44'  

Dump ship's entire track history